createdAt,value
2023-05-19T00:18:45.537Z,9.46
2023-05-19T00:39:41.033Z,9.54
2023-05-19T02:31:52.565Z,9.85
2023-05-19T02:42:10.669Z,9.89
2023-05-19T02:53:14.606Z,10.04
2023-05-19T04:32:19.100Z,11.32
2023-05-19T04:42:53.143Z,11.57
2023-05-19T04:53:21.464Z,12.02
2023-05-19T05:04:07.806Z,12.62
2023-05-19T07:36:01.937Z,18.76
2023-05-19T07:46:06.294Z,19.30
2023-05-19T08:33:39.610Z,20.72
2023-05-19T08:43:58.401Z,21.25
2023-05-19T08:54:14.938Z,20.85
2023-05-19T09:04:18.590Z,20.43
2023-05-19T09:14:23.207Z,20.12
2023-05-19T09:24:28.960Z,20.12
2023-05-19T09:34:33.102Z,20.59
2023-05-19T09:44:38.717Z,20.08
2023-05-19T09:54:45.442Z,18.48
2023-05-19T10:04:53.631Z,17.85
2023-05-19T10:14:58.525Z,17.30
2023-05-19T10:25:02.390Z,17.11
2023-05-19T10:35:22.573Z,16.99
2023-05-19T10:45:33.855Z,16.83
2023-05-19T10:55:56.471Z,16.60
2023-05-19T11:06:25.404Z,16.10
2023-05-19T11:16:30.533Z,16.03
2023-05-19T11:26:43.862Z,16.11
2023-05-19T11:36:49.771Z,16.20
2023-05-19T11:46:53.790Z,15.60
2023-05-19T11:56:57.681Z,15.08
2023-05-19T12:07:04.561Z,14.74
2023-05-19T12:17:18.389Z,14.80
2023-05-19T12:27:26.877Z,14.62
2023-05-19T12:37:30.650Z,14.38
2023-05-19T12:47:37.641Z,14.38
2023-05-19T12:57:45.343Z,14.14
2023-05-19T13:08:06.944Z,14.05
2023-05-19T13:18:12.667Z,14.10
2023-05-19T13:28:18.130Z,14.14
2023-05-19T13:38:23.814Z,14.16
2023-05-19T13:48:27.473Z,13.93
2023-05-19T13:58:31.120Z,14.51
2023-05-19T14:08:34.753Z,14.80
2023-05-19T14:18:38.300Z,15.03
2023-05-19T14:28:42.382Z,15.12
2023-05-19T14:38:45.975Z,15.35
2023-05-19T14:48:49.675Z,15.30
2023-05-19T14:58:53.269Z,14.99
2023-05-19T15:08:56.917Z,14.83
2023-05-19T15:19:02.557Z,14.85
2023-05-19T15:29:06.225Z,14.59
2023-05-19T15:39:10.151Z,14.59
2023-05-19T15:49:13.904Z,14.66
2023-05-19T15:59:19.581Z,14.51
2023-05-19T16:09:40.029Z,14.50
2023-05-19T16:20:16.860Z,14.53
2023-05-19T16:30:37.216Z,14.42
2023-05-19T16:53:23.685Z,14.31
2023-05-19T17:03:30.839Z,14.25
2023-05-19T17:13:36.531Z,14.06
2023-05-19T17:23:42.078Z,14.20
2023-05-19T17:33:46.469Z,14.13
2023-05-19T17:43:49.988Z,14.00
2023-05-19T17:53:56.003Z,14.08
2023-05-19T18:04:00.092Z,13.89
2023-05-19T18:14:03.916Z,13.83
2023-05-19T18:24:11.814Z,13.78
2023-05-19T18:34:15.556Z,13.74
2023-05-19T18:44:19.160Z,13.69
2023-05-19T18:54:46.163Z,13.59
2023-05-19T19:04:51.252Z,13.53
2023-05-19T19:14:55.148Z,13.54
2023-05-19T19:24:58.742Z,13.55
2023-05-19T19:35:06.463Z,13.64
2023-05-19T19:45:12.004Z,13.60
2023-05-19T19:55:20.038Z,13.62
2023-05-19T20:05:24.156Z,13.60
2023-05-19T20:15:27.871Z,13.52
2023-05-19T20:25:35.009Z,13.47
2023-05-19T20:35:38.895Z,13.57
2023-05-19T20:45:46.672Z,13.67
2023-05-19T20:55:50.402Z,13.72
2023-05-19T21:05:56.748Z,13.67
2023-05-19T21:16:01.677Z,13.71
2023-05-19T21:26:06.363Z,13.45
2023-05-19T21:36:10.117Z,13.34
2023-05-19T21:46:16.747Z,13.38
2023-05-19T21:56:21.900Z,13.39
2023-05-19T22:06:26.436Z,13.46
2023-05-19T22:16:31.385Z,13.42
2023-05-19T22:26:36.023Z,13.46
2023-05-19T22:36:41.728Z,13.50
2023-05-19T22:46:45.648Z,13.53
2023-05-19T22:56:51.271Z,13.61
2023-05-19T23:07:02.462Z,13.69
2023-05-19T23:17:08.960Z,13.68
2023-05-19T23:27:12.801Z,13.72
2023-05-19T23:37:20.475Z,13.62
2023-05-19T23:47:24.301Z,13.58
2023-05-19T23:57:30.032Z,13.59
